Wimauma, Florida
Current Conditions -  °F | °C
As of 8:58 PM on Saturday 20 Dec 2014 (Local Time) from KMCF Reporting Station
Overcast Overcast  
Wind Chill: 63°   Ceiling: 10000
Heat Index: 63°   Visibility: 10mi
Dew Point: 60°   Wind: 5mph
Humidity: 91%   Direction: 10°N
Pressure: 30.08"   Gusts: NA
Location:  27.71°N, 82.3°W
Report Text: KMCF 210158Z AUTO 01004KT 10SM OVC100 17/16 A3008 RMK AO2 SLP189 T01730158 $
Loading
Personal Weather Stations






























Interactive Weather Map New forecast layout! Learn more

10-Day Weather Forecast

Advertisements
Track Severe Weather on mobile